Time;durP1;ratioP1;P1;durP2;ratioP2;P2;SDS_P1;SDS_P2;PMS_P1;PMS_P2;Temp;Humidity;BMP_temperature;BMP_pressure;BME280_temperature;BME280_humidity;BME280_pressure;Samples;Min_cycle;Max_cycle;Signal;HPM_P1;HPM_P2
2021/10/29 00:00:35;;;;;;;55.47;17.45;;;;;;;6.73;81.62;98825.63;2625363;54;20039;-70
2021/10/29 00:03:06;;;;;;;36.78;16.50;;;;;;;6.73;82.02;98818.56;2623376;39;20463;-72
2021/10/29 00:05:37;;;;;;;31.70;16.13;;;;;;;6.70;82.06;98822.34;2626018;31;20553;-71
2021/10/29 00:08:07;;;;;;;77.20;18.33;;;;;;;6.70;82.25;98822.34;2622626;54;20040;-73
2021/10/29 00:10:37;;;;;;;33.90;17.27;;;;;;;6.59;82.22;98814.81;2626436;54;20026;-73
2021/10/29 00:13:09;;;;;;;42.72;16.60;;;;;;;6.58;82.26;98818.44;2627113;54;20549;-73
2021/10/29 00:15:39;;;;;;;45.50;16.58;;;;;;;6.59;82.46;98814.00;2626551;54;20038;-72
2021/10/29 00:18:09;;;;;;;34.85;15.35;;;;;;;6.58;82.87;98812.38;2626674;54;20561;-72
2021/10/29 00:20:38;;;;;;;39.50;20.38;;;;;;;6.63;82.90;98808.25;2627061;54;20045;-72
2021/10/29 00:23:08;;;;;;;28.65;16.75;;;;;;;6.66;82.88;98804.47;2626470;54;20038;-73
2021/10/29 00:25:38;;;;;;;48.75;19.30;;;;;;;6.70;83.18;98811.84;2626685;54;20114;-71
2021/10/29 00:28:10;;;;;;;27.15;16.90;;;;;;;6.67;82.52;98803.47;2626848;54;20031;-75
2021/10/29 00:30:40;;;;;;;25.48;15.43;;;;;;;6.64;83.11;98798.56;2627359;54;20034;-72
2021/10/29 00:33:11;;;;;;;44.35;16.83;;;;;;;6.67;82.92;98800.84;2625670;54;20098;-73
2021/10/29 00:35:40;;;;;;;27.65;14.95;;;;;;;6.58;82.82;98805.31;2625807;51;20666;-72
2021/10/29 00:38:10;;;;;;;27.10;14.25;;;;;;;6.48;83.01;98802.03;2625862;54;20090;-72
2021/10/29 00:40:41;;;;;;;89.85;15.27;;;;;;;6.49;83.00;98802.84;2625655;54;20046;-72
2021/10/29 00:43:13;;;;;;;42.40;17.08;;;;;;;6.40;82.77;98802.84;2626313;39;20469;-71
2021/10/29 00:45:44;;;;;;;31.25;13.75;;;;;;;6.29;83.21;98800.59;2625355;54;20030;-71
2021/10/29 00:48:14;;;;;;;44.33;14.77;;;;;;;6.33;83.61;98803.69;2625408;54;20026;-72
2021/10/29 00:50:43;;;;;;;33.40;15.02;;;;;;;6.31;82.96;98800.41;2624943;54;20042;-71
2021/10/29 00:53:13;;;;;;;39.42;13.20;;;;;;;6.23;82.89;98801.22;2625247;54;20022;-70
2021/10/29 00:55:43;;;;;;;29.20;12.13;;;;;;;6.19;83.48;98803.34;2625227;54;20026;-73
2021/10/29 00:58:16;;;;;;;24.08;12.60;;;;;;;6.27;83.63;98804.34;2624877;54;20030;-72
2021/10/29 01:00:45;;;;;;;22.65;12.48;;;;;;;6.31;83.52;98801.22;2625422;54;20074;-71
2021/10/29 01:03:16;;;;;;;21.45;12.05;;;;;;;6.28;83.21;98800.72;2625591;54;20037;-71
2021/10/29 01:05:45;;;;;;;35.63;11.90;;;;;;;6.13;82.54;98793.53;2625899;39;20085;-74
2021/10/29 01:08:15;;;;;;;21.63;11.73;;;;;;;6.10;82.84;98795.66;2626048;54;20022;-73
2021/10/29 01:10:45;;;;;;;25.50;11.48;;;;;;;6.05;82.84;98796.16;2626631;54;20034;-74
2021/10/29 01:13:17;;;;;;;22.13;11.13;;;;;;;6.10;83.26;98793.03;2627067;54;20037;-74
2021/10/29 01:15:47;;;;;;;18.25;11.60;;;;;;;6.11;83.09;98786.78;2626617;54;20042;-72
2021/10/29 01:18:17;;;;;;;18.80;11.35;;;;;;;6.11;82.67;98790.22;2626887;54;20041;-72
2021/10/29 01:20:49;;;;;;;19.55;9.40;;;;;;;6.11;83.09;98790.22;2626859;54;20042;-73
2021/10/29 01:23:19;;;;;;;15.15;9.45;;;;;;;6.09;82.44;98788.78;2625433;47;20077;-73
2021/10/29 01:25:48;;;;;;;20.48;10.27;;;;;;;6.06;82.44;98784.66;2625480;54;20031;-71
2021/10/29 01:28:18;;;;;;;17.23;10.57;;;;;;;5.95;81.77;98777.94;2626127;39;20504;-74
2021/10/29 01:30:47;;;;;;;16.83;9.65;;;;;;;5.87;81.64;98763.97;2624498;54;20026;-73
2021/10/29 01:33:17;;;;;;;12.82;9.00;;;;;;;5.86;81.99;98768.38;2624880;54;20034;-74
2021/10/29 01:35:50;;;;;;;13.05;9.30;;;;;;;5.97;82.60;98766.47;2623593;47;20576;-74
2021/10/29 01:38:20;;;;;;;24.83;10.43;;;;;;;5.97;82.10;98761.22;2623678;54;20022;-74
2021/10/29 01:40:50;;;;;;;15.30;10.55;;;;;;;5.91;81.39;98758.22;2623845;54;20034;-74
2021/10/29 01:43:19;;;;;;;18.75;10.77;;;;;;;5.88;81.80;98747.25;2624481;39;20417;-73
2021/10/29 01:45:49;;;;;;;19.38;11.15;;;;;;;5.81;81.70;98741.84;2624912;39;20105;-74
2021/10/29 01:48:18;;;;;;;21.48;11.57;;;;;;;5.63;81.82;98730.66;2624528;54;20030;-74
2021/10/29 01:50:51;;;;;;;30.95;11.80;;;;;;;5.66;82.60;98777.53;2622777;54;20605;-72
2021/10/29 01:53:21;;;;;;;17.15;11.20;;;;;;;5.71;82.62;98759.50;2624268;54;20027;-75
2021/10/29 01:55:51;;;;;;;17.23;10.60;;;;;;;5.80;82.37;98755.13;2626071;39;20457;-72
2021/10/29 01:58:21;;;;;;;22.98;10.60;;;;;;;5.86;82.82;98757.91;2625446;54;20592;-73
2021/10/29 02:00:50;;;;;;;28.90;12.20;;;;;;;5.99;82.30;98754.81;2625987;54;20018;-74
2021/10/29 02:03:20;;;;;;;15.07;10.02;;;;;;;5.99;82.29;98756.63;2626384;54;20518;-73
2021/10/29 02:05:53;;;;;;;20.95;11.65;;;;;;;6.03;82.36;98760.56;2625938;47;20034;-73
2021/10/29 02:08:24;;;;;;;22.42;12.38;;;;;;;6.14;82.46;98758.41;2626089;54;20045;-74
2021/10/29 02:10:54;;;;;;;23.92;11.38;;;;;;;6.16;82.23;98745.97;2625917;54;20766;-73
2021/10/29 02:13:25;;;;;;;25.25;12.02;;;;;;;6.25;81.56;98749.41;2626710;54;20030;-72
2021/10/29 02:15:54;;;;;;;15.60;10.45;;;;;;;6.27;82.04;98752.66;2625597;47;20129;-73
2021/10/29 02:18:24;;;;;;;64.82;13.27;;;;;;;6.32;82.10;98757.41;2625209;54;20027;-73
2021/10/29 02:21:01;;;;;;;35.30;13.05;;;;;;;6.31;81.95;98740.03;2628660;39;20532;-74
2021/10/29 02:23:30;;;;;;;16.33;12.05;;;;;;;6.34;81.44;98745.75;2625590;54;20030;-74
2021/10/29 02:26:00;;;;;;;21.08;12.18;;;;;;;6.33;81.72;98743.31;2625990;46;20042;-72
2021/10/29 02:28:30;;;;;;;19.50;12.90;;;;;;;6.40;81.91;98745.06;2626138;54;20161;-72
2021/10/29 02:30:59;;;;;;;41.55;12.55;;;;;;;6.49;81.48;98742.44;2625870;54;20052;-74
2021/10/29 02:33:30;;;;;;;18.90;12.68;;;;;;;6.50;81.42;98734.41;2625397;54;20059;-71
2021/10/29 02:36:03;;;;;;;24.73;13.13;;;;;;;6.55;81.61;98739.16;2625208;54;20027;-72
2021/10/29 02:38:33;;;;;;;19.90;12.48;;;;;;;6.50;81.34;98737.03;2625316;39;20514;-71
2021/10/29 02:41:04;;;;;;;27.65;12.77;;;;;;;6.45;81.47;98726.22;2624012;54;20050;-71
2021/10/29 02:43:33;;;;;;;47.38;15.18;;;;;;;6.43;81.58;98736.06;2625139;54;20027;-76
2021/10/29 02:46:03;;;;;;;36.72;15.18;;;;;;;6.39;81.15;98735.56;2624818;54;20580;-72
2021/10/29 02:48:33;;;;;;;66.22;14.85;;;;;;;6.13;80.86;98734.97;2624853;54;20630;-72
2021/10/29 02:51:05;;;;;;;39.13;14.85;;;;;;;6.02;81.29;98741.38;2625326;54;20027;-73
2021/10/29 02:53:37;;;;;;;25.48;14.45;;;;;;;6.10;81.88;98740.53;2625379;54;20089;-71
2021/10/29 02:56:07;;;;;;;21.38;13.88;;;;;;;6.26;82.16;98734.47;2625771;54;20079;-74
2021/10/29 02:58:37;;;;;;;21.70;13.65;;;;;;;6.31;81.89;98738.22;2625754;46;20026;-72
2021/10/29 03:01:07;;;;;;;33.00;14.35;;;;;;;6.38;81.99;98748.88;2624043;54;20448;-72
2021/10/29 03:03:37;;;;;;;74.30;14.50;;;;;;;6.37;81.97;98739.38;2623957;47;20122;-72
2021/10/29 03:06:09;;;;;;;44.92;14.32;;;;;;;6.29;81.38;98736.75;2625587;39;20534;-72
2021/10/29 03:08:38;;;;;;;24.73;13.43;;;;;;;6.30;81.81;98738.38;2625139;54;20027;-73
2021/10/29 03:11:08;;;;;;;102.88;16.95;;;;;;;6.19;80.95;98734.28;2625803;54;20034;-73
2021/10/29 03:13:38;;;;;;;92.90;17.02;;;;;;;6.03;80.54;98724.63;2624820;54;20139;-72
2021/10/29 03:16:08;;;;;;;35.15;14.27;;;;;;;5.81;81.15;98733.16;2624944;54;20042;-71
2021/10/29 03:18:37;;;;;;;37.15;14.10;;;;;;;5.81;82.22;98733.16;2624480;54;20031;-72
2021/10/29 03:21:10;;;;;;;24.88;14.63;;;;;;;5.87;82.50;98732.47;2624627;54;20027;-72
2021/10/29 03:23:40;;;;;;;30.77;14.60;;;;;;;5.90;82.72;98727.72;2624068;54;20030;-72
2021/10/29 03:26:09;;;;;;;19.77;12.82;;;;;;;5.93;82.59;98724.00;2625297;39;20465;-71
2021/10/29 03:28:39;;;;;;;19.50;13.13;;;;;;;6.02;82.81;98725.63;2624931;54;20022;-74
2021/10/29 03:31:09;;;;;;;28.20;16.02;;;;;;;6.07;82.20;98733.00;2624688;54;20037;-73
2021/10/29 03:33:40;;;;;;;32.22;14.80;;;;;;;5.99;82.10;98715.44;2624399;54;20034;-76
2021/10/29 03:36:12;;;;;;;23.85;14.07;;;;;;;5.95;82.23;98725.44;2622199;47;20034;-73
2021/10/29 03:38:49;;;;;;;24.00;13.27;;;;;;;5.87;82.01;98720.16;2624266;54;20038;-74
2021/10/29 03:41:21;;;;;;;41.40;13.88;;;;;;;5.72;81.87;98725.28;2623646;54;20054;-74
2021/10/29 03:43:55;;;;;;;44.67;13.98;;;;;;;5.60;81.74;98723.94;2624108;54;20038;-74
2021/10/29 03:46:26;;;;;;;43.42;14.00;;;;;;;5.51;81.83;98722.31;2624501;54;20026;-74
2021/10/29 03:49:04;;;;;;;29.17;12.23;;;;;;;5.51;82.67;98719.69;2625148;54;20037;-74
2021/10/29 03:51:39;;;;;;;26.85;12.07;;;;;;;5.49;82.39;98712.97;2624596;54;20046;-74
2021/10/29 03:54:11;;;;;;;29.02;11.93;;;;;;;5.54;82.89;98718.53;2623989;54;20033;-74
2021/10/29 03:56:52;;;;;;;27.90;12.13;;;;;;;5.48;82.63;98720.00;2624321;47;20042;-75
2021/10/29 03:59:22;;;;;;;46.85;11.27;;;;;;;5.45;82.56;98720.31;2624184;54;20058;-75
2021/10/29 04:01:52;;;;;;;27.08;11.85;;;;;;;5.32;82.40;98717.34;2624344;54;20025;-74
2021/10/29 04:04:22;;;;;;;36.45;11.75;;;;;;;5.28;82.83;98713.41;2625271;39;20414;-73
2021/10/29 04:06:54;;;;;;;18.65;10.57;;;;;;;5.16;82.52;98710.28;2624596;54;20030;-74
2021/10/29 04:09:24;;;;;;;20.83;10.18;;;;;;;5.09;82.87;98711.88;2623970;54;20034;-74
2021/10/29 04:11:54;;;;;;;21.67;10.45;;;;;;;5.01;82.19;98712.69;2623637;54;20034;-74
2021/10/29 04:14:27;;;;;;;18.65;9.50;;;;;;;4.89;82.52;98713.94;2621662;47;20597;-73
2021/10/29 04:16:58;;;;;;;11.95;8.43;;;;;;;4.94;82.79;98716.94;2621569;54;20039;-72
2021/10/29 04:19:27;;;;;;;12.75;8.45;;;;;;;4.99;83.27;98706.78;2622014;54;20034;-74
2021/10/29 04:22:00;;;;;;;12.68;8.77;;;;;;;5.02;82.68;98708.25;2621607;39;20461;-74
2021/10/29 04:24:30;;;;;;;11.40;8.10;;;;;;;5.08;83.01;98710.25;2621727;54;20616;-74
2021/10/29 04:27:01;;;;;;;14.93;8.32;;;;;;;5.12;82.22;98693.22;2621965;54;20031;-75
2021/10/29 04:29:35;;;;;;;16.10;8.77;;;;;;;5.08;81.58;98690.09;2620975;47;20569;-75
2021/10/29 04:32:06;;;;;;;11.48;8.82;;;;;;;4.97;82.00;98693.84;2621150;54;20030;-74
2021/10/29 04:34:35;;;;;;;12.50;7.57;;;;;;;5.01;82.13;98696.16;2621979;54;20042;-74
2021/10/29 04:37:08;;;;;;;11.85;7.78;;;;;;;5.08;82.18;98690.09;2622392;54;20033;-74
2021/10/29 04:39:39;;;;;;;11.05;7.65;;;;;;;5.10;81.81;98697.81;2622036;54;20046;-74
2021/10/29 04:42:09;;;;;;;10.77;7.90;;;;;;;4.99;81.02;98688.47;2622466;54;20015;-76
2021/10/29 04:44:38;;;;;;;10.98;7.55;;;;;;;4.89;81.20;98688.56;2623323;54;20045;-73
2021/10/29 04:47:08;;;;;;;10.88;7.35;;;;;;;4.95;81.74;98687.13;2625252;54;20044;-75
2021/10/29 04:49:38;;;;;;;12.93;7.32;;;;;;;5.02;82.22;98697.78;2624374;54;20027;-74
2021/10/29 04:52:10;;;;;;;10.93;7.47;;;;;;;5.04;81.68;98687.97;2624085;54;20033;-74
2021/10/29 04:54:39;;;;;;;10.38;7.95;;;;;;;4.99;81.02;98682.41;2623879;54;20027;-74
2021/10/29 04:57:09;;;;;;;10.32;7.55;;;;;;;4.96;80.92;98679.09;2623756;54;20037;-73
2021/10/29 04:59:39;;;;;;;9.73;7.57;;;;;;;4.97;81.35;98680.75;2624083;54;20038;-74
2021/10/29 05:02:08;;;;;;;14.32;8.43;;;;;;;4.99;81.26;98671.91;2625599;46;20058;-73
2021/10/29 05:04:38;;;;;;;12.40;8.35;;;;;;;5.01;81.38;98669.94;2625222;54;20106;-73
2021/10/29 05:07:10;;;;;;;11.75;7.85;;;;;;;4.93;81.15;98662.88;2624742;54;20034;-73
2021/10/29 05:09:40;;;;;;;11.90;8.55;;;;;;;4.94;80.48;98660.13;2623530;47;20057;-73
2021/10/29 05:12:10;;;;;;;10.10;7.50;;;;;;;4.88;81.03;98658.13;2624169;54;20026;-73
2021/10/29 05:14:39;;;;;;;12.07;8.77;;;;;;;4.94;80.71;98657.50;2624064;54;20569;-74
2021/10/29 05:17:09;;;;;;;12.27;8.18;;;;;;;4.94;80.57;98662.75;2624470;54;20039;-74
2021/10/29 05:19:39;;;;;;;18.40;8.88;;;;;;;4.99;80.91;98654.41;2624330;54;20082;-74
2021/10/29 05:22:11;;;;;;;11.57;8.13;;;;;;;5.03;80.55;98654.91;2624570;54;20019;-73
2021/10/29 05:24:40;;;;;;;9.68;8.23;;;;;;;5.06;80.55;98649.31;2624821;54;20038;-73
2021/10/29 05:27:10;;;;;;;11.77;8.27;;;;;;;4.91;79.48;98652.56;2623562;54;20044;-73
2021/10/29 05:29:40;;;;;;;8.93;7.80;;;;;;;4.84;80.05;98650.75;2623673;54;20562;-74
2021/10/29 05:32:10;;;;;;;11.57;8.93;;;;;;;4.84;79.91;98653.38;2627276;39;20560;-72
2021/10/29 05:34:40;;;;;;;12.48;8.20;;;;;;;4.81;80.41;98651.88;2624741;54;20034;-72
2021/10/29 05:37:12;;;;;;;10.85;8.15;;;;;;;4.83;80.27;98655.19;2627766;39;20561;-75
2021/10/29 05:39:42;;;;;;;9.90;8.23;;;;;;;4.89;80.48;98654.53;2624258;54;20040;-73
2021/10/29 05:42:15;;;;;;;10.50;8.02;;;;;;;4.96;80.04;98657.34;2623253;47;20032;-73
2021/10/29 05:44:45;;;;;;;13.95;8.50;;;;;;;4.91;79.42;98654.38;2623971;39;20466;-73
2021/10/29 05:47:15;;;;;;;13.73;10.05;;;;;;;4.82;79.07;98652.72;2623709;47;20035;-73
2021/10/29 05:49:45;;;;;;;12.52;9.60;;;;;;;4.72;79.54;98656.28;2624538;47;20058;-72
2021/10/29 05:52:20;;;;;;;12.02;9.48;;;;;;;4.72;79.79;98643.19;2624897;54;20026;-73
2021/10/29 05:55:13;;;;;;;12.90;9.25;;;;;;;4.77;80.19;98647.94;2625147;54;20649;-72
2021/10/29 05:57:44;;;;;;;12.15;8.82;;;;;;;4.78;79.53;98633.88;2625312;54;20031;-71
2021/10/29 06:00:16;;;;;;;12.02;9.15;;;;;;;4.78;79.69;98643.53;2624759;54;20034;-72
2021/10/29 06:02:46;;;;;;;12.90;8.82;;;;;;;4.77;80.02;98640.09;2623604;54;20030;-71
2021/10/29 06:05:16;;;;;;;12.30;9.10;;;;;;;4.87;80.25;98645.19;2624110;47;20027;-72
2021/10/29 06:07:48;;;;;;;12.50;9.07;;;;;;;4.87;79.36;98640.78;2623441;47;20031;-72
2021/10/29 06:10:19;;;;;;;12.60;9.20;;;;;;;4.70;79.09;98633.88;2623525;54;20027;-71
2021/10/29 06:12:48;;;;;;;14.68;9.10;;;;;;;4.72;79.77;98631.91;2619662;54;20030;-71
2021/10/29 06:15:19;;;;;;;12.50;8.48;;;;;;;4.79;79.48;98635.53;2620924;54;20041;-72
2021/10/29 06:17:49;;;;;;;10.15;8.45;;;;;;;4.77;79.33;98632.22;2623552;54;20134;-71
2021/10/29 06:20:19;;;;;;;13.98;9.45;;;;;;;4.76;78.97;98633.22;2622670;54;20043;-71
2021/10/29 06:22:52;;;;;;;10.98;8.75;;;;;;;4.68;78.77;98643.66;2622904;47;20054;-72
2021/10/29 06:25:26;;;;;;;12.80;9.00;;;;;;;4.59;78.79;98634.97;2623799;47;20023;-72
2021/10/29 06:28:20;;;;;;;14.15;9.55;;;;;;;4.64;79.28;98626.63;2623368;54;20030;-73
2021/10/29 06:30:50;;;;;;;11.30;8.90;;;;;;;4.53;79.27;98625.13;2623252;54;20146;-72
2021/10/29 06:33:23;;;;;;;12.02;8.20;;;;;;;4.53;78.99;98629.53;2623236;54;20026;-72
2021/10/29 06:35:56;;;;;;;11.65;8.63;;;;;;;4.55;79.15;98622.34;2624485;54;20035;-73
2021/10/29 06:38:32;;;;;;;10.70;8.45;;;;;;;4.61;79.21;98612.06;2624714;54;20034;-73
2021/10/29 06:41:05;;;;;;;12.27;8.95;;;;;;;4.58;78.91;98622.84;2616573;54;20031;-67
2021/10/29 06:43:38;;;;;;;17.35;10.30;;;;;;;4.59;79.18;98610.59;2618214;54;20057;-66
2021/10/29 06:49:07;;;;;;;12.10;8.93;;;;;;;4.76;78.50;98617.50;2616618;51;20564;-68
2021/10/29 07:00:07;;;;;;;14.65;9.27;;;;;;;4.89;78.05;98612.59;2616650;54;20035;-68
2021/10/29 07:11:34;;;;;;;;;;;;;;;4.90;78.37;98619.50;2618010;54;20023;-68
2021/10/29 07:41:00;;;;;;;11.95;9.18;;;;;;;5.80;76.27;98630.03;2617971;54;20030;-68
2021/10/29 07:43:34;;;;;;;11.73;9.70;;;;;;;5.82;75.98;98635.91;2618144;47;20077;-68
2021/10/29 07:46:08;;;;;;;13.55;9.75;;;;;;;5.87;75.79;98641.47;2618507;54;20537;-68
2021/10/29 07:48:38;;;;;;;13.50;10.25;;;;;;;5.96;75.79;98639.72;2618555;54;20027;-68
2021/10/29 07:51:08;;;;;;;12.27;9.63;;;;;;;6.12;75.42;98642.28;2618234;54;20062;-67
2021/10/29 07:53:38;;;;;;;11.20;9.43;;;;;;;6.28;75.55;98641.41;2619151;39;20436;-67
2021/10/29 07:56:08;;;;;;;15.68;10.77;;;;;;;6.37;75.43;98644.84;2618444;54;20038;-68
2021/10/29 07:58:39;;;;;;;14.85;10.25;;;;;;;6.47;74.82;98649.88;2618609;54;20030;-68
2021/10/29 08:01:11;;;;;;;14.82;11.20;;;;;;;6.51;74.33;98656.44;2618404;54;20026;-68
2021/10/29 08:03:41;;;;;;;14.52;11.15;;;;;;;6.51;74.25;98656.44;2618973;39;20438;-68
2021/10/29 08:06:10;;;;;;;14.95;11.80;;;;;;;6.55;74.30;98655.09;2617768;47;20023;-68
2021/10/29 08:08:40;;;;;;;19.02;12.43;;;;;;;6.61;74.34;98652.63;2618365;54;20554;-68
2021/10/29 08:11:10;;;;;;;18.45;12.98;;;;;;;6.68;74.82;98653.56;2618309;54;20554;-67
2021/10/29 08:13:39;;;;;;;17.00;13.23;;;;;;;6.65;74.67;98653.09;2617881;47;20042;-68
2021/10/29 08:16:12;;;;;;;15.77;11.40;;;;;;;6.75;74.42;98663.41;2619039;39;20422;-70
2021/10/29 08:18:44;;;;;;;16.10;13.32;;;;;;;6.83;74.55;98664.19;2617820;54;20033;-69
2021/10/29 08:21:15;;;;;;;16.13;13.98;;;;;;;6.90;74.17;98645.94;2618300;54;20045;-69
2021/10/29 08:23:45;;;;;;;14.82;12.48;;;;;;;6.93;74.58;98656.88;2618548;54;20031;-68
2021/10/29 08:26:15;;;;;;;16.13;12.65;;;;;;;6.97;74.42;98661.81;2618526;54;20580;-69
2021/10/29 08:28:45;;;;;;;17.80;12.80;;;;;;;7.03;74.36;98658.50;2619126;39;20430;-69
2021/10/29 08:31:17;;;;;;;17.90;14.55;;;;;;;7.18;74.29;98643.59;2620409;54;20564;-69
2021/10/29 08:33:47;;;;;;;14.15;11.88;;;;;;;7.25;74.43;98641.91;2624669;54;20617;-69
2021/10/29 08:36:19;;;;;;;14.30;12.35;;;;;;;7.37;74.31;98651.03;2625897;54;20042;-69
2021/10/29 08:38:49;;;;;;;15.85;12.15;;;;;;;7.47;74.24;98648.19;2626413;54;20040;-68
2021/10/29 08:41:29;;;;;;;15.70;12.07;;;;;;;7.59;74.05;98645.91;2625765;54;20071;-69
2021/10/29 08:43:59;;;;;;;14.57;12.32;;;;;;;7.71;73.15;98652.41;2624976;54;20029;-69
2021/10/29 08:46:31;;;;;;;14.05;11.77;;;;;;;7.72;72.51;98647.97;2625667;54;20034;-68
2021/10/29 08:49:02;;;;;;;14.57;12.50;;;;;;;7.71;71.70;98636.59;2627700;39;20553;-69
2021/10/29 08:51:33;;;;;;;17.50;12.82;;;;;;;7.74;72.86;98641.53;2624573;54;20026;-69
2021/10/29 08:54:02;;;;;;;21.13;12.23;;;;;;;7.91;72.59;98642.19;2624968;47;20030;-69
2021/10/29 08:56:32;;;;;;;16.42;12.07;;;;;;;8.02;71.96;98638.31;2623923;54;20550;-69
2021/10/29 08:59:12;;;;;;;15.80;12.18;;;;;;;8.08;72.13;98638.41;2624067;54;20026;-68
2021/10/29 09:02:01;;;;;;;15.98;11.73;;;;;;;8.17;71.87;98621.53;2623203;54;20038;-70
2021/10/29 09:04:39;;;;;;;16.77;11.05;;;;;;;8.29;71.42;98619.25;2622345;54;20550;-68
2021/10/29 09:07:24;;;;;;;15.95;12.75;;;;;;;8.47;71.91;98613.63;2625121;54;20030;-69
2021/10/29 09:10:18;;;;;;;14.10;11.70;;;;;;;8.51;71.58;98619.34;2623508;54;20038;-69
2021/10/29 09:32:22;;;;;;;17.85;12.68;;;;;;;9.36;70.56;98590.44;2617973;54;20038;-68
2021/10/29 09:35:08;;;;;;;18.20;12.55;;;;;;;9.56;69.84;98582.69;2618337;54;20037;-68
2021/10/29 09:37:57;;;;;;;19.40;14.48;;;;;;;9.76;69.84;98579.41;2618319;54;20026;-68
2021/10/29 09:41:00;;;;;;;17.48;12.38;;;;;;;9.83;69.11;98580.25;2617869;54;20034;-68
2021/10/29 09:43:36;;;;;;;17.05;12.70;;;;;;;9.96;69.20;98579.50;2618291;54;20039;-68
2021/10/29 09:46:07;;;;;;;14.00;11.70;;;;;;;10.12;68.94;98571.28;2621293;54;20030;-68
2021/10/29 09:48:42;;;;;;;16.60;12.73;;;;;;;10.23;67.86;98565.44;2621894;54;20034;-68
2021/10/29 09:51:17;;;;;;;16.75;13.68;;;;;;;10.34;67.38;98564.91;2621144;54;20030;-69
2021/10/29 09:53:58;;;;;;;15.95;13.95;;;;;;;10.36;67.52;98559.44;2621564;39;20463;-68
2021/10/29 09:56:45;;;;;;;18.23;12.23;;;;;;;10.38;67.73;98578.56;2618196;54;20116;-68
2021/10/29 09:59:14;;;;;;;15.63;13.93;;;;;;;10.48;68.08;98563.13;2618107;54;20292;-69
2021/10/29 10:01:44;;;;;;;13.98;11.98;;;;;;;10.57;67.49;98561.97;2618751;54;20084;-69
2021/10/29 10:04:17;;;;;;;16.70;12.52;;;;;;;10.73;67.82;98557.31;2619132;54;20027;-68
2021/10/29 10:06:50;;;;;;;13.80;11.93;;;;;;;10.86;67.90;98565.31;2618649;47;20031;-69
2021/10/29 10:09:22;;;;;;;15.03;12.03;;;;;;;11.01;67.98;98552.69;2618773;54;20046;-70
2021/10/29 10:11:53;;;;;;;14.75;11.52;;;;;;;11.18;67.64;98547.84;2618087;54;20030;-70
2021/10/29 10:14:23;;;;;;;15.40;12.70;;;;;;;11.30;67.04;98545.41;2618904;54;20038;-69
2021/10/29 10:16:52;;;;;;;15.63;11.98;;;;;;;11.36;66.71;98544.59;2619564;54;20038;-69
2021/10/29 10:19:23;;;;;;;14.02;11.88;;;;;;;11.38;66.78;98540.72;2619336;54;20557;-68
2021/10/29 10:21:58;;;;;;;17.88;11.88;;;;;;;11.50;66.73;98529.53;2619022;47;20027;-68
2021/10/29 10:24:32;;;;;;;15.35;12.15;;;;;;;11.58;66.71;98524.00;2619905;54;20053;-69
2021/10/29 10:30:06;;;;;;;13.70;11.35;;;;;;;11.77;66.79;98520.53;2620062;54;20070;-69
2021/10/29 10:43:56;;;;;;;19.08;12.95;;;;;;;12.30;66.92;98493.88;2619238;39;20473;-69
2021/10/29 10:46:26;;;;;;;13.98;11.48;;;;;;;12.37;66.78;98492.03;2619015;39;20453;-70
2021/10/29 10:49:04;;;;;;;15.75;11.93;;;;;;;12.44;67.09;98494.63;2618782;54;20045;-69
2021/10/29 10:51:43;;;;;;;14.82;11.00;;;;;;;12.61;66.91;98486.97;2618063;47;20023;-68
2021/10/29 10:54:27;;;;;;;14.05;12.05;;;;;;;12.79;66.51;98479.13;2618774;54;20040;-69
2021/10/29 10:57:08;;;;;;;13.75;12.40;;;;;;;12.92;66.62;98472.91;2619071;39;20458;-70
2021/10/29 10:59:48;;;;;;;12.30;10.93;;;;;;;13.02;66.04;98472.41;2618392;54;20033;-69
2021/10/29 11:02:42;;;;;;;13.10;10.85;;;;;;;13.10;65.96;98472.16;2618883;39;20441;-68
2021/10/29 11:05:29;;;;;;;13.00;10.70;;;;;;;13.21;65.46;98468.00;2618547;54;20082;-68
2021/10/29 11:10:59;;;;;;;10.80;9.20;;;;;;;13.44;64.84;98454.13;2618647;39;20438;-68
2021/10/29 11:13:49;;;;;;;13.93;9.60;;;;;;;13.57;64.22;98451.34;2618334;51;20030;-68
2021/10/29 11:16:28;;;;;;;11.95;9.02;;;;;;;13.58;64.00;98442.34;2619725;39;20470;-68
2021/10/29 11:19:05;;;;;;;12.73;9.65;;;;;;;13.65;64.15;98445.75;2618619;54;20571;-68
2021/10/29 11:21:37;;;;;;;8.65;7.10;;;;;;;13.75;65.26;98432.75;2618337;54;20037;-66
2021/10/29 11:24:10;;;;;;;10.88;7.93;;;;;;;13.95;65.05;98423.72;2619195;39;20434;-67
2021/10/29 11:26:44;;;;;;;13.18;7.97;;;;;;;14.04;64.69;98422.38;2617869;54;20035;-67
2021/10/29 11:29:15;;;;;;;8.45;7.15;;;;;;;14.13;64.69;98421.88;2618511;54;20026;-67
2021/10/29 11:31:46;;;;;;;10.77;7.30;;;;;;;14.20;64.29;98418.28;2618597;54;20035;-68
2021/10/29 11:34:18;;;;;;;8.52;6.45;;;;;;;14.28;63.83;98410.81;2618939;54;20094;-68
2021/10/29 11:36:51;;;;;;;10.25;7.13;;;;;;;14.40;63.56;98404.72;2618714;54;20126;-68
2021/10/29 11:39:24;;;;;;;8.45;6.55;;;;;;;14.49;63.29;98409.56;2618662;54;20084;-67
2021/10/29 11:41:56;;;;;;;7.68;6.22;;;;;;;14.63;62.17;98402.16;2618357;54;20042;-67
2021/10/29 11:44:27;;;;;;;7.63;5.43;;;;;;;14.79;61.54;98398.84;2618467;54;20044;-68
2021/10/29 11:46:58;;;;;;;8.40;5.20;;;;;;;14.92;60.58;98383.69;2618708;54;20026;-67
2021/10/29 11:49:30;;;;;;;8.07;6.35;;;;;;;15.00;61.08;98386.81;2617919;47;20069;-67
2021/10/29 11:52:03;;;;;;;8.35;5.55;;;;;;;15.07;60.46;98382.19;2618142;54;20022;-68
2021/10/29 11:54:35;;;;;;;8.65;5.88;;;;;;;15.17;60.41;98364.84;2618236;47;20030;-68
2021/10/29 11:57:22;;;;;;;15.95;10.07;;;;;;;15.28;59.88;98366.69;2618748;54;20031;-67
2021/10/29 12:08:11;;;;;;;12.88;7.35;;;;;;;15.77;58.64;98343.22;2620550;54;20034;-68
2021/10/29 12:10:44;;;;;;;4.68;2.95;;;;;;;15.95;55.35;98340.34;2621143;54;20030;-68
2021/10/29 12:13:16;;;;;;;3.05;2.40;;;;;;;16.14;53.64;98334.81;2622402;54;20523;-68
2021/10/29 12:15:46;;;;;;;5.97;3.03;;;;;;;16.39;51.95;98326.44;2622983;54;20026;-68
2021/10/29 12:18:16;;;;;;;5.60;4.35;;;;;;;16.59;51.10;98313.44;2622655;54;20030;-67
2021/10/29 12:20:48;;;;;;;4.65;3.08;;;;;;;16.66;49.68;98319.41;2621688;54;20030;-67
2021/10/29 12:23:22;;;;;;;6.97;5.25;;;;;;;16.76;49.22;98319.59;2621813;54;20026;-68
2021/10/29 12:26:01;;;;;;;14.27;9.18;;;;;;;16.86;49.14;98313.63;2622085;54;20035;-68
2021/10/29 12:28:36;;;;;;;5.07;3.03;;;;;;;16.96;48.79;98303.06;2621466;54;20027;-68
2021/10/29 12:31:17;;;;;;;8.80;6.30;;;;;;;17.01;48.77;98305.00;2619725;54;20054;-67
2021/10/29 13:01:37;;;;;;;7.65;4.93;;;;;;;17.20;45.57;98276.16;2624579;54;20596;-73
2021/10/29 13:04:10;;;;;;;17.75;10.45;;;;;;;17.22;45.98;98277.50;2623195;54;20066;-73
2021/10/29 13:06:44;;;;;;;8.50;4.57;;;;;;;17.27;45.74;98282.13;2622364;54;20034;-73
2021/10/29 13:09:15;;;;;;;;;;;;;;;17.27;45.51;98280.25;2622712;54;20046;-73
2021/10/29 13:11:51;;;;;;;5.85;4.25;;;;;;;17.27;45.33;98276.78;2621770;54;19942;-72
2021/10/29 13:14:29;;;;;;;6.10;3.80;;;;;;;17.34;45.31;98264.00;2621600;54;20031;-73
2021/10/29 13:17:04;;;;;;;2.63;2.28;;;;;;;17.46;45.34;98269.22;2621788;54;20039;-73
2021/10/29 13:19:54;;;;;;;5.38;3.28;;;;;;;17.47;45.61;98266.31;2622020;54;20584;-72
2021/10/29 13:22:56;;;;;;;3.97;2.40;;;;;;;17.45;44.66;98256.94;2621075;47;20042;-73
2021/10/29 13:28:29;;;;;;;3.05;2.55;;;;;;;17.51;44.93;98259.44;2618967;54;20045;-72
2021/10/29 13:36:32;;;;;;;3.95;2.70;;;;;;;17.51;44.75;98254.06;2619613;54;20566;-73
2021/10/29 13:52:56;;;;;;;2.90;2.38;;;;;;;17.16;44.12;98261.66;2622914;54;20030;-72
2021/10/29 13:55:36;;;;;;;2.60;2.00;;;;;;;17.04;44.59;98259.91;2622736;39;20403;-72
2021/10/29 14:01:16;;;;;;;4.60;2.42;;;;;;;16.93;44.73;98252.81;2621722;47;20581;-72
2021/10/29 14:04:07;;;;;;;2.55;2.33;;;;;;;16.83;44.90;98252.69;2621999;47;20133;-72
2021/10/29 14:28:45;;;;;;;3.90;1.90;;;;;;;16.93;45.14;98252.81;2624639;54;20061;-73
2021/10/29 14:31:19;;;;;;;;;;;;;;;17.01;44.69;98255.06;2624431;54;20045;-72
2021/10/29 14:33:52;;;;;;;3.80;2.83;;;;;;;17.02;44.82;98259.38;2624178;39;20377;-72
2021/10/29 14:36:25;;;;;;;3.90;2.20;;;;;;;17.00;44.90;98258.00;2623735;54;20035;-72
2021/10/29 14:39:05;;;;;;;3.50;2.43;;;;;;;17.03;44.76;98258.31;2624793;39;20430;-72
2021/10/29 14:41:40;;;;;;;2.78;2.33;;;;;;;16.99;45.09;98256.38;2624266;47;20307;-72